sensor_id;sensor_type;location;lat;lon;timestamp;pressure;altitude;pressure_sealevel;temperature;humidity
14383;BME280;7275;50.328;8.720;2022-12-18T00:01:19;101163.94;;;-0.49;39.31
14383;BME280;7275;50.328;8.720;2022-12-18T00:03:49;101169.88;;;-0.53;38.41
14383;BME280;7275;50.328;8.720;2022-12-18T00:06:17;101164.53;;;-0.58;39.23
14383;BME280;7275;50.328;8.720;2022-12-18T00:08:45;101160.97;;;-0.61;38.82
14383;BME280;7275;50.328;8.720;2022-12-18T00:11:15;101165.13;;;-0.66;38.58
14383;BME280;7275;50.328;8.720;2022-12-18T00:13:43;101167.66;;;-0.69;38.56
14383;BME280;7275;50.328;8.720;2022-12-18T00:16:13;101160.59;;;-0.73;38.74
14383;BME280;7275;50.328;8.720;2022-12-18T00:18:41;101156.19;;;-0.76;39.19
14383;BME280;7275;50.328;8.720;2022-12-18T00:21:11;101151.00;;;-0.76;38.81
14383;BME280;7275;50.328;8.720;2022-12-18T00:23:42;101153.66;;;-0.73;38.54
14383;BME280;7275;50.328;8.720;2022-12-18T00:26:11;101156.25;;;-0.73;39.16
14383;BME280;7275;50.328;8.720;2022-12-18T00:28:39;101149.28;;;-0.75;38.67
14383;BME280;7275;50.328;8.720;2022-12-18T00:31:09;101149.22;;;-0.77;38.80
14383;BME280;7275;50.328;8.720;2022-12-18T00:33:38;101162.16;;;-0.78;38.85
14383;BME280;7275;50.328;8.720;2022-12-18T00:36:09;101165.63;;;-0.78;39.68
14383;BME280;7275;50.328;8.720;2022-12-18T00:38:38;101151.03;;;-0.74;39.47
14383;BME280;7275;50.328;8.720;2022-12-18T00:41:07;101152.81;;;-0.73;39.29
14383;BME280;7275;50.328;8.720;2022-12-18T00:43:34;101147.69;;;-0.70;38.73
14383;BME280;7275;50.328;8.720;2022-12-18T00:46:02;101151.19;;;-0.70;38.59
14383;BME280;7275;50.328;8.720;2022-12-18T00:48:30;101153.66;;;-0.73;38.62
14383;BME280;7275;50.328;8.720;2022-12-18T00:50:58;101152.69;;;-0.76;38.78
14383;BME280;7275;50.328;8.720;2022-12-18T00:53:25;101163.84;;;-0.79;38.89
14383;BME280;7275;50.328;8.720;2022-12-18T00:55:54;101163.66;;;-0.85;38.51
14383;BME280;7275;50.328;8.720;2022-12-18T00:58:21;101161.72;;;-0.92;38.73
14383;BME280;7275;50.328;8.720;2022-12-18T01:00:49;101165.84;;;-0.99;38.79
14383;BME280;7275;50.328;8.720;2022-12-18T01:03:17;101170.84;;;-1.05;38.78
14383;BME280;7275;50.328;8.720;2022-12-18T01:05:44;101162.84;;;-1.11;38.13
14383;BME280;7275;50.328;8.720;2022-12-18T01:08:12;101157.44;;;-1.17;38.57
14383;BME280;7275;50.328;8.720;2022-12-18T01:10:40;101163.34;;;-1.21;38.83
14383;BME280;7275;50.328;8.720;2022-12-18T01:13:08;101164.97;;;-1.24;38.32
14383;BME280;7275;50.328;8.720;2022-12-18T01:15:36;101165.66;;;-1.30;38.62
14383;BME280;7275;50.328;8.720;2022-12-18T01:18:03;101162.97;;;-1.33;38.35
14383;BME280;7275;50.328;8.720;2022-12-18T01:20:31;101180.94;;;-1.37;38.43
14383;BME280;7275;50.328;8.720;2022-12-18T01:22:58;101186.81;;;-1.43;38.46
14383;BME280;7275;50.328;8.720;2022-12-18T01:25:26;101189.38;;;-1.44;38.19
14383;BME280;7275;50.328;8.720;2022-12-18T01:27:53;101195.28;;;-1.48;38.00
14383;BME280;7275;50.328;8.720;2022-12-18T01:30:22;101191.66;;;-1.52;37.95
14383;BME280;7275;50.328;8.720;2022-12-18T01:32:50;101198.44;;;-1.57;38.33
14383;BME280;7275;50.328;8.720;2022-12-18T01:35:17;101196.59;;;-1.59;38.60
14383;BME280;7275;50.328;8.720;2022-12-18T01:37:45;101201.63;;;-1.64;38.36
14383;BME280;7275;50.328;8.720;2022-12-18T01:40:12;101195.50;;;-1.66;38.47
14383;BME280;7275;50.328;8.720;2022-12-18T01:42:40;101198.00;;;-1.69;38.60
14383;BME280;7275;50.328;8.720;2022-12-18T01:45:25;101190.88;;;-1.75;37.95
14383;BME280;7275;50.328;8.720;2022-12-18T01:47:55;101185.59;;;-1.78;38.00
14383;BME280;7275;50.328;8.720;2022-12-18T01:50:25;101180.25;;;-1.82;37.74
14383;BME280;7275;50.328;8.720;2022-12-18T01:52:58;101174.84;;;-1.88;38.32
14383;BME280;7275;50.328;8.720;2022-12-18T01:55:30;101162.59;;;-1.92;38.54
14383;BME280;7275;50.328;8.720;2022-12-18T01:57:59;101159.84;;;-1.97;38.11
14383;BME280;7275;50.328;8.720;2022-12-18T02:00:29;101169.22;;;-2.00;38.35
14383;BME280;7275;50.328;8.720;2022-12-18T02:02:56;101181.22;;;-2.02;38.45
14383;BME280;7275;50.328;8.720;2022-12-18T02:05:34;101175.09;;;-2.04;38.42
14383;BME280;7275;50.328;8.720;2022-12-18T02:08:09;101159.50;;;-2.06;37.81
14383;BME280;7275;50.328;8.720;2022-12-18T02:10:43;101154.28;;;-2.07;38.05
14383;BME280;7275;50.328;8.720;2022-12-18T02:13:19;101153.38;;;-2.08;38.46
14383;BME280;7275;50.328;8.720;2022-12-18T02:15:54;101158.56;;;-2.08;37.83
14383;BME280;7275;50.328;8.720;2022-12-18T02:18:30;101165.41;;;-2.10;37.87
14383;BME280;7275;50.328;8.720;2022-12-18T02:21:04;101166.94;;;-2.15;37.85
14383;BME280;7275;50.328;8.720;2022-12-18T02:23:46;101169.38;;;-2.19;38.52
14383;BME280;7275;50.328;8.720;2022-12-18T02:26:19;101172.69;;;-2.23;37.86
14383;BME280;7275;50.328;8.720;2022-12-18T02:28:51;101183.03;;;-2.23;38.62
14383;BME280;7275;50.328;8.720;2022-12-18T02:31:23;101171.84;;;-2.22;38.31
14383;BME280;7275;50.328;8.720;2022-12-18T02:33:54;101167.50;;;-2.23;38.57
14383;BME280;7275;50.328;8.720;2022-12-18T02:36:24;101157.94;;;-2.24;38.46
14383;BME280;7275;50.328;8.720;2022-12-18T02:38:55;101159.59;;;-2.26;38.01
14383;BME280;7275;50.328;8.720;2022-12-18T02:41:25;101163.84;;;-2.28;38.13
14383;BME280;7275;50.328;8.720;2022-12-18T02:43:55;101160.31;;;-2.30;38.34
14383;BME280;7275;50.328;8.720;2022-12-18T02:46:28;101170.72;;;-2.29;37.91
14383;BME280;7275;50.328;8.720;2022-12-18T02:49:19;101178.44;;;-2.30;38.42
14383;BME280;7275;50.328;8.720;2022-12-18T02:51:53;101185.22;;;-2.34;38.34
14383;BME280;7275;50.328;8.720;2022-12-18T02:54:32;101172.28;;;-2.34;38.20
14383;BME280;7275;50.328;8.720;2022-12-18T02:57:12;101177.38;;;-2.35;38.02
14383;BME280;7275;50.328;8.720;2022-12-18T02:59:47;101169.59;;;-2.35;37.80
14383;BME280;7275;50.328;8.720;2022-12-18T03:02:21;101167.91;;;-2.35;38.04
14383;BME280;7275;50.328;8.720;2022-12-18T03:04:56;101161.03;;;-2.34;37.88
14383;BME280;7275;50.328;8.720;2022-12-18T03:07:34;101169.59;;;-2.35;37.90
14383;BME280;7275;50.328;8.720;2022-12-18T03:10:03;101175.66;;;-2.35;38.48
14383;BME280;7275;50.328;8.720;2022-12-18T03:12:35;101181.69;;;-2.36;37.82
14383;BME280;7275;50.328;8.720;2022-12-18T03:15:09;101173.94;;;-2.36;37.75
14383;BME280;7275;50.328;8.720;2022-12-18T03:17:48;101161.78;;;-2.37;37.65
14383;BME280;7275;50.328;8.720;2022-12-18T03:20:19;101164.34;;;-2.38;38.28
14383;BME280;7275;50.328;8.720;2022-12-18T03:22:51;101164.28;;;-2.40;38.36
14383;BME280;7275;50.328;8.720;2022-12-18T03:25:21;101165.09;;;-2.41;38.25
14383;BME280;7275;50.328;8.720;2022-12-18T03:27:55;101173.69;;;-2.42;38.35
14383;BME280;7275;50.328;8.720;2022-12-18T03:30:25;101170.97;;;-2.45;37.70
14383;BME280;7275;50.328;8.720;2022-12-18T03:33:00;101168.34;;;-2.47;38.15
14383;BME280;7275;50.328;8.720;2022-12-18T03:35:32;101167.44;;;-2.47;38.13
14383;BME280;7275;50.328;8.720;2022-12-18T03:38:01;101167.41;;;-2.49;38.09
14383;BME280;7275;50.328;8.720;2022-12-18T03:40:35;101166.47;;;-2.51;38.16
14383;BME280;7275;50.328;8.720;2022-12-18T03:43:10;101162.81;;;-2.56;37.86
14383;BME280;7275;50.328;8.720;2022-12-18T03:45:50;101173.91;;;-2.58;37.60
14383;BME280;7275;50.328;8.720;2022-12-18T03:48:26;101161.69;;;-2.62;37.92
14383;BME280;7275;50.328;8.720;2022-12-18T03:50:57;101159.03;;;-2.64;37.76
14383;BME280;7275;50.328;8.720;2022-12-18T03:53:33;101164.22;;;-2.64;38.45
14383;BME280;7275;50.328;8.720;2022-12-18T03:56:03;101160.69;;;-2.66;37.65
14383;BME280;7275;50.328;8.720;2022-12-18T03:58:35;101167.56;;;-2.66;38.10
14383;BME280;7275;50.328;8.720;2022-12-18T04:01:07;101156.31;;;-2.67;37.99
14383;BME280;7275;50.328;8.720;2022-12-18T04:03:36;101162.38;;;-2.66;38.41
14383;BME280;7275;50.328;8.720;2022-12-18T04:06:06;101167.56;;;-2.66;38.22
14383;BME280;7275;50.328;8.720;2022-12-18T04:08:35;101171.94;;;-2.65;38.13
14383;BME280;7275;50.328;8.720;2022-12-18T04:11:03;101169.34;;;-2.65;38.13
14383;BME280;7275;50.328;8.720;2022-12-18T04:13:35;101164.09;;;-2.67;37.88
14383;BME280;7275;50.328;8.720;2022-12-18T04:16:04;101164.03;;;-2.68;37.51
14383;BME280;7275;50.328;8.720;2022-12-18T04:18:31;101157.09;;;-2.69;38.00
14383;BME280;7275;50.328;8.720;2022-12-18T04:20:59;101162.28;;;-2.69;37.56
14383;BME280;7275;50.328;8.720;2022-12-18T04:23:27;101166.53;;;-2.71;38.08
14383;BME280;7275;50.328;8.720;2022-12-18T04:25:54;101171.69;;;-2.71;38.29
14383;BME280;7275;50.328;8.720;2022-12-18T04:28:22;101162.09;;;-2.74;37.76
14383;BME280;7275;50.328;8.720;2022-12-18T04:30:50;101152.50;;;-2.76;38.17
14383;BME280;7275;50.328;8.720;2022-12-18T04:33:18;101157.69;;;-2.76;38.14
14383;BME280;7275;50.328;8.720;2022-12-18T04:35:46;101161.06;;;-2.77;38.12
14383;BME280;7275;50.328;8.720;2022-12-18T04:38:13;101161.16;;;-2.76;38.26
14383;BME280;7275;50.328;8.720;2022-12-18T04:40:41;101155.03;;;-2.78;37.44
14383;BME280;7275;50.328;8.720;2022-12-18T04:43:09;101156.75;;;-2.78;37.86
14383;BME280;7275;50.328;8.720;2022-12-18T04:45:37;101152.47;;;-2.78;37.61
14383;BME280;7275;50.328;8.720;2022-12-18T04:48:07;101155.84;;;-2.79;38.24
14383;BME280;7275;50.328;8.720;2022-12-18T04:50:35;101153.97;;;-2.83;37.74
14383;BME280;7275;50.328;8.720;2022-12-18T04:53:03;101149.63;;;-2.84;37.84
14383;BME280;7275;50.328;8.720;2022-12-18T04:55:30;101158.19;;;-2.85;38.16
14383;BME280;7275;50.328;8.720;2022-12-18T04:57:58;101155.63;;;-2.85;37.91
14383;BME280;7275;50.328;8.720;2022-12-18T05:00:25;101159.09;;;-2.84;37.83
14383;BME280;7275;50.328;8.720;2022-12-18T05:02:53;101165.91;;;-2.86;37.67
14383;BME280;7275;50.328;8.720;2022-12-18T05:05:22;101154.72;;;-2.85;38.23
14383;BME280;7275;50.328;8.720;2022-12-18T05:07:50;101156.44;;;-2.86;38.12
14383;BME280;7275;50.328;8.720;2022-12-18T05:10:17;101155.56;;;-2.86;37.60
14383;BME280;7275;50.328;8.720;2022-12-18T05:12:45;101165.06;;;-2.85;38.26
14383;BME280;7275;50.328;8.720;2022-12-18T05:15:28;101164.13;;;-2.87;37.78
14383;BME280;7275;50.328;8.720;2022-12-18T05:17:56;101159.66;;;-2.91;37.82
14383;BME280;7275;50.328;8.720;2022-12-18T05:20:25;101165.59;;;-2.94;38.23
14383;BME280;7275;50.328;8.720;2022-12-18T05:22:54;101175.78;;;-2.98;37.62
14383;BME280;7275;50.328;8.720;2022-12-18T05:25:22;101182.63;;;-2.99;37.91
14383;BME280;7275;50.328;8.720;2022-12-18T05:27:49;101178.22;;;-3.01;37.88
14383;BME280;7275;50.328;8.720;2022-12-18T05:30:17;101177.28;;;-3.03;37.98
14383;BME280;7275;50.328;8.720;2022-12-18T05:32:45;101171.28;;;-3.02;38.09
14383;BME280;7275;50.328;8.720;2022-12-18T05:35:12;101162.75;;;-3.00;37.92
14383;BME280;7275;50.328;8.720;2022-12-18T05:37:41;101165.34;;;-3.00;38.28
14383;BME280;7275;50.328;8.720;2022-12-18T05:40:10;101164.50;;;-3.00;38.15
14383;BME280;7275;50.328;8.720;2022-12-18T05:42:38;101173.94;;;-3.01;38.08
14383;BME280;7275;50.328;8.720;2022-12-18T05:45:06;101173.06;;;-3.01;38.01
14383;BME280;7275;50.328;8.720;2022-12-18T05:47:33;101179.88;;;-3.03;38.09
14383;BME280;7275;50.328;8.720;2022-12-18T05:50:01;101181.50;;;-3.05;37.61
14383;BME280;7275;50.328;8.720;2022-12-18T05:52:30;101176.38;;;-3.04;37.75
14383;BME280;7275;50.328;8.720;2022-12-18T05:54:59;101179.91;;;-3.02;37.75
14383;BME280;7275;50.328;8.720;2022-12-18T05:57:26;101181.56;;;-3.04;38.02
14383;BME280;7275;50.328;8.720;2022-12-18T05:59:54;101173.81;;;-3.04;38.11
14383;BME280;7275;50.328;8.720;2022-12-18T06:02:21;101178.09;;;-3.04;37.69
14383;BME280;7275;50.328;8.720;2022-12-18T06:04:49;101177.22;;;-3.05;37.76
14383;BME280;7275;50.328;8.720;2022-12-18T06:07:16;101182.41;;;-3.05;37.66
14383;BME280;7275;50.328;8.720;2022-12-18T06:09:44;101178.91;;;-3.05;37.83
14383;BME280;7275;50.328;8.720;2022-12-18T06:12:13;101182.31;;;-3.06;37.86
14383;BME280;7275;50.328;8.720;2022-12-18T06:14:40;101177.03;;;-3.09;37.94
14383;BME280;7275;50.328;8.720;2022-12-18T06:17:08;101197.72;;;-3.09;37.79
14383;BME280;7275;50.328;8.720;2022-12-18T06:19:35;101188.19;;;-3.10;38.05
14383;BME280;7275;50.328;8.720;2022-12-18T06:22:03;101196.03;;;-3.09;38.05
14383;BME280;7275;50.328;8.720;2022-12-18T06:24:30;101199.47;;;-3.08;38.03
14383;BME280;7275;50.328;8.720;2022-12-18T06:26:59;101185.69;;;-3.09;37.59
14383;BME280;7275;50.328;8.720;2022-12-18T06:29:28;101186.53;;;-3.08;38.28
14383;BME280;7275;50.328;8.720;2022-12-18T06:31:55;101183.91;;;-3.10;38.25
14383;BME280;7275;50.328;8.720;2022-12-18T06:34:23;101183.94;;;-3.08;37.72
14383;BME280;7275;50.328;8.720;2022-12-18T06:36:50;101183.09;;;-3.09;37.92
14383;BME280;7275;50.328;8.720;2022-12-18T06:39:18;101183.00;;;-3.10;37.33
14383;BME280;7275;50.328;8.720;2022-12-18T06:41:45;101183.84;;;-3.11;37.44
14383;BME280;7275;50.328;8.720;2022-12-18T06:44:13;101189.81;;;-3.12;37.67
14383;BME280;7275;50.328;8.720;2022-12-18T06:46:41;101185.50;;;-3.13;37.63
14383;BME280;7275;50.328;8.720;2022-12-18T06:49:09;101204.47;;;-3.13;38.09
14383;BME280;7275;50.328;8.720;2022-12-18T06:51:37;101209.56;;;-3.14;38.11
14383;BME280;7275;50.328;8.720;2022-12-18T06:54:04;101213.72;;;-3.18;38.13
14383;BME280;7275;50.328;8.720;2022-12-18T06:56:32;101207.56;;;-3.21;37.71
14383;BME280;7275;50.328;8.720;2022-12-18T06:58:59;101209.25;;;-3.22;38.19
14383;BME280;7275;50.328;8.720;2022-12-18T07:01:27;101210.16;;;-3.21;38.08
14383;BME280;7275;50.328;8.720;2022-12-18T07:03:56;101213.59;;;-3.21;38.06
14383;BME280;7275;50.328;8.720;2022-12-18T07:06:25;101216.25;;;-3.19;37.77
14383;BME280;7275;50.328;8.720;2022-12-18T07:08:54;101221.44;;;-3.19;37.94
14383;BME280;7275;50.328;8.720;2022-12-18T07:11:21;101225.72;;;-3.20;38.09
14383;BME280;7275;50.328;8.720;2022-12-18T07:13:49;101231.00;;;-3.17;38.34
14383;BME280;7275;50.328;8.720;2022-12-18T07:16:18;101227.59;;;-3.16;37.56
14383;BME280;7275;50.328;8.720;2022-12-18T07:18:51;101223.25;;;-3.17;38.17
14383;BME280;7275;50.328;8.720;2022-12-18T07:21:20;101231.28;;;-3.11;37.79
14383;BME280;7275;50.328;8.720;2022-12-18T07:23:48;101233.03;;;-3.10;37.99
14383;BME280;7275;50.328;8.720;2022-12-18T07:26:17;101230.50;;;-3.08;37.93
14383;BME280;7275;50.328;8.720;2022-12-18T07:28:45;101227.16;;;-3.06;37.98
14383;BME280;7275;50.328;8.720;2022-12-18T07:31:15;101227.34;;;-3.01;37.75
14383;BME280;7275;50.328;8.720;2022-12-18T07:33:44;101223.97;;;-3.00;38.13
14383;BME280;7275;50.328;8.720;2022-12-18T07:36:13;101210.19;;;-2.99;38.08
14383;BME280;7275;50.328;8.720;2022-12-18T07:38:42;101222.38;;;-2.97;37.94
14383;BME280;7275;50.328;8.720;2022-12-18T07:41:11;101219.16;;;-2.91;38.13
14383;BME280;7275;50.328;8.720;2022-12-18T07:43:40;101220.28;;;-2.85;38.38
14383;BME280;7275;50.328;8.720;2022-12-18T07:46:09;101222.38;;;-2.76;38.57
14383;BME280;7275;50.328;8.720;2022-12-18T07:48:39;101217.56;;;-2.67;37.94
14383;BME280;7275;50.328;8.720;2022-12-18T07:51:06;101205.16;;;-2.54;38.18
14383;BME280;7275;50.328;8.720;2022-12-18T07:53:35;101214.56;;;-2.33;38.46
14383;BME280;7275;50.328;8.720;2022-12-18T07:56:07;101214.84;;;-2.04;38.76
14383;BME280;7275;50.328;8.720;2022-12-18T07:58:55;101214.56;;;-1.64;39.13
14383;BME280;7275;50.328;8.720;2022-12-18T08:01:22;101221.22;;;-1.23;39.21
14383;BME280;7275;50.328;8.720;2022-12-18T08:03:50;101210.53;;;-0.81;39.41
14383;BME280;7275;50.328;8.720;2022-12-18T08:06:18;101208.63;;;-0.31;39.72
14383;BME280;7275;50.328;8.720;2022-12-18T08:08:50;101203.31;;;0.22;40.25
14383;BME280;7275;50.328;8.720;2022-12-18T08:11:19;101204.69;;;0.73;40.10
14383;BME280;7275;50.328;8.720;2022-12-18T08:13:47;101201.69;;;1.25;40.18
14383;BME280;7275;50.328;8.720;2022-12-18T08:16:15;101196.03;;;1.82;39.88
14383;BME280;7275;50.328;8.720;2022-12-18T08:18:43;101190.31;;;2.39;40.49
14383;BME280;7275;50.328;8.720;2022-12-18T08:21:11;101185.31;;;2.98;40.09
14383;BME280;7275;50.328;8.720;2022-12-18T08:23:39;101187.16;;;3.59;39.14
14383;BME280;7275;50.328;8.720;2022-12-18T08:26:09;101172.53;;;4.43;37.60
14383;BME280;7275;50.328;8.720;2022-12-18T08:28:39;101160.28;;;5.34;35.99
14383;BME280;7275;50.328;8.720;2022-12-18T08:31:07;101154.44;;;5.79;36.93
14383;BME280;7275;50.328;8.720;2022-12-18T08:33:36;101145.03;;;6.20;36.96
14383;BME280;7275;50.328;8.720;2022-12-18T08:36:08;101149.53;;;6.68;37.23
14383;BME280;7275;50.328;8.720;2022-12-18T08:38:36;101146.06;;;7.17;37.15
14383;BME280;7275;50.328;8.720;2022-12-18T08:41:05;101146.88;;;7.64;36.86
14383;BME280;7275;50.328;8.720;2022-12-18T08:43:33;101134.47;;;8.07;36.72
14383;BME280;7275;50.328;8.720;2022-12-18T08:46:20;101151.78;;;8.56;36.43
14383;BME280;7275;50.328;8.720;2022-12-18T08:48:50;101140.09;;;8.97;36.24
14383;BME280;7275;50.328;8.720;2022-12-18T08:51:18;101123.94;;;9.34;36.42
14383;BME280;7275;50.328;8.720;2022-12-18T08:53:46;101121.88;;;9.62;36.05
14383;BME280;7275;50.328;8.720;2022-12-18T08:56:14;101124.34;;;9.80;35.77
14383;BME280;7275;50.328;8.720;2022-12-18T08:58:43;101112.69;;;9.96;35.66
14383;BME280;7275;50.328;8.720;2022-12-18T09:01:11;101111.63;;;10.12;35.37
14383;BME280;7275;50.328;8.720;2022-12-18T09:03:41;101105.22;;;10.31;35.50
14383;BME280;7275;50.328;8.720;2022-12-18T09:06:13;101108.38;;;10.56;35.32
14383;BME280;7275;50.328;8.720;2022-12-18T09:08:40;101115.00;;;10.83;34.97
14383;BME280;7275;50.328;8.720;2022-12-18T09:11:12;101107.22;;;11.27;35.25
14383;BME280;7275;50.328;8.720;2022-12-18T09:13:40;101107.31;;;11.71;34.67
14383;BME280;7275;50.328;8.720;2022-12-18T09:16:08;101113.41;;;12.19;34.33
14383;BME280;7275;50.328;8.720;2022-12-18T09:18:36;101101.88;;;12.60;34.35
14383;BME280;7275;50.328;8.720;2022-12-18T09:21:09;101118.00;;;12.89;33.58
14383;BME280;7275;50.328;8.720;2022-12-18T09:23:37;101115.44;;;13.21;33.65
14383;BME280;7275;50.328;8.720;2022-12-18T09:26:05;101118.03;;;13.56;33.24
14383;BME280;7275;50.328;8.720;2022-12-18T09:28:33;101120.78;;;13.86;33.13
14383;BME280;7275;50.328;8.720;2022-12-18T09:31:05;101120.09;;;14.10;32.86
14383;BME280;7275;50.328;8.720;2022-12-18T09:33:34;101112.34;;;14.33;32.79
14383;BME280;7275;50.328;8.720;2022-12-18T09:36:03;101120.34;;;14.61;32.63
14383;BME280;7275;50.328;8.720;2022-12-18T09:38:32;101114.53;;;14.76;32.45
14383;BME280;7275;50.328;8.720;2022-12-18T09:41:05;101109.75;;;14.87;32.28
14383;BME280;7275;50.328;8.720;2022-12-18T09:43:40;101110.72;;;14.84;32.13
14383;BME280;7275;50.328;8.720;2022-12-18T09:46:12;101118.91;;;14.78;32.10
14383;BME280;7275;50.328;8.720;2022-12-18T09:48:46;101125.19;;;14.76;31.91
14383;BME280;7275;50.328;8.720;2022-12-18T09:51:18;101115.41;;;14.76;32.04
14383;BME280;7275;50.328;8.720;2022-12-18T09:53:53;101109.34;;;14.71;31.89
14383;BME280;7275;50.328;8.720;2022-12-18T09:56:23;101123.09;;;14.58;31.67
14383;BME280;7275;50.328;8.720;2022-12-18T09:58:58;101120.31;;;14.33;31.28
14383;BME280;7275;50.328;8.720;2022-12-18T10:01:27;101119.41;;;14.02;31.17
14383;BME280;7275;50.328;8.720;2022-12-18T10:04:08;101114.03;;;13.73;31.25
14383;BME280;7275;50.328;8.720;2022-12-18T10:06:40;101110.34;;;13.47;31.00
14383;BME280;7275;50.328;8.720;2022-12-18T10:09:18;101116.38;;;13.19;30.95
14383;BME280;7275;50.328;8.720;2022-12-18T10:11:53;101125.81;;;12.95;31.33
14383;BME280;7275;50.328;8.720;2022-12-18T10:14:30;101135.31;;;12.67;31.34
14383;BME280;7275;50.328;8.720;2022-12-18T10:17:10;101124.44;;;12.41;31.12
14383;BME280;7275;50.328;8.720;2022-12-18T10:19:45;101137.06;;;12.27;31.47
14383;BME280;7275;50.328;8.720;2022-12-18T10:22:23;101138.19;;;12.17;31.68
14383;BME280;7275;50.328;8.720;2022-12-18T10:25:01;101114.53;;;12.08;31.72
14383;BME280;7275;50.328;8.720;2022-12-18T10:27:32;101118.13;;;12.05;31.67
14383;BME280;7275;50.328;8.720;2022-12-18T10:30:00;101119.88;;;12.04;31.42
14383;BME280;7275;50.328;8.720;2022-12-18T10:32:32;101119.09;;;12.01;31.33
14383;BME280;7275;50.328;8.720;2022-12-18T10:35:00;101119.22;;;11.93;31.13
14383;BME280;7275;50.328;8.720;2022-12-18T10:37:28;101118.38;;;11.91;31.27
14383;BME280;7275;50.328;8.720;2022-12-18T10:40:11;101107.06;;;11.83;31.53
14383;BME280;7275;50.328;8.720;2022-12-18T10:43:02;101103.84;;;11.68;31.48
14383;BME280;7275;50.328;8.720;2022-12-18T10:45:30;101105.16;;;11.44;31.12
14383;BME280;7275;50.328;8.720;2022-12-18T10:47:58;101105.81;;;11.06;30.87
14383;BME280;7275;50.328;8.720;2022-12-18T10:50:29;101115.41;;;10.59;31.02
14383;BME280;7275;50.328;8.720;2022-12-18T10:53:20;101110.03;;;9.98;30.92
14383;BME280;7275;50.328;8.720;2022-12-18T10:55:52;101115.00;;;9.49;31.25
14383;BME280;7275;50.328;8.720;2022-12-18T10:58:23;101116.31;;;9.00;31.68
14383;BME280;7275;50.328;8.720;2022-12-18T11:01:08;101132.50;;;8.50;31.60
14383;BME280;7275;50.328;8.720;2022-12-18T11:03:37;101133.56;;;8.08;32.03
14383;BME280;7275;50.328;8.720;2022-12-18T11:06:08;101125.78;;;7.76;32.18
14383;BME280;7275;50.328;8.720;2022-12-18T11:08:36;101138.13;;;7.50;32.56
14383;BME280;7275;50.328;8.720;2022-12-18T11:11:15;101142.56;;;7.30;32.95
14383;BME280;7275;50.328;8.720;2022-12-18T11:13:54;101135.56;;;7.17;32.79
14383;BME280;7275;50.328;8.720;2022-12-18T11:16:24;101146.06;;;7.12;33.34
14383;BME280;7275;50.328;8.720;2022-12-18T11:18:51;101132.91;;;7.17;33.33
14383;BME280;7275;50.328;8.720;2022-12-18T11:21:19;101134.69;;;7.15;33.58
14383;BME280;7275;50.328;8.720;2022-12-18T11:23:49;101130.28;;;7.11;33.48
14383;BME280;7275;50.328;8.720;2022-12-18T11:26:19;101123.25;;;7.05;33.58
14383;BME280;7275;50.328;8.720;2022-12-18T11:28:50;101119.78;;;6.91;33.65
14383;BME280;7275;50.328;8.720;2022-12-18T11:31:25;101112.75;;;6.77;33.68
14383;BME280;7275;50.328;8.720;2022-12-18T11:34:00;101105.75;;;6.68;33.64
14383;BME280;7275;50.328;8.720;2022-12-18T11:36:48;101103.09;;;6.62;34.20
14383;BME280;7275;50.328;8.720;2022-12-18T11:39:19;101097.84;;;6.62;33.91
14383;BME280;7275;50.328;8.720;2022-12-18T11:41:54;101091.72;;;6.57;34.31
14383;BME280;7275;50.328;8.720;2022-12-18T11:44:43;101094.34;;;6.56;34.71
14383;BME280;7275;50.328;8.720;2022-12-18T11:47:18;101098.72;;;6.66;34.53
14383;BME280;7275;50.328;8.720;2022-12-18T11:49:49;101094.38;;;6.75;34.33
14383;BME280;7275;50.328;8.720;2022-12-18T11:52:20;101098.75;;;6.84;34.50
14383;BME280;7275;50.328;8.720;2022-12-18T11:54:51;101102.25;;;6.87;34.29
14383;BME280;7275;50.328;8.720;2022-12-18T11:57:27;101111.03;;;6.88;34.40
14383;BME280;7275;50.328;8.720;2022-12-18T12:00:04;101096.13;;;6.79;34.22
14383;BME280;7275;50.328;8.720;2022-12-18T12:02:47;101101.34;;;6.70;34.35
14383;BME280;7275;50.328;8.720;2022-12-18T12:05:33;101093.44;;;6.55;34.65
14383;BME280;7275;50.328;8.720;2022-12-18T12:08:09;101093.44;;;6.34;34.44
14383;BME280;7275;50.328;8.720;2022-12-18T12:10:51;101099.53;;;6.15;34.60
14383;BME280;7275;50.328;8.720;2022-12-18T12:13:36;101102.97;;;6.02;34.53
14383;BME280;7275;50.328;8.720;2022-12-18T12:16:14;101115.16;;;5.91;34.83
14383;BME280;7275;50.328;8.720;2022-12-18T12:18:57;101119.44;;;5.78;34.74
14383;BME280;7275;50.328;8.720;2022-12-18T12:21:35;101107.13;;;5.60;35.23
14383;BME280;7275;50.328;8.720;2022-12-18T12:24:19;101104.38;;;5.41;35.33
14383;BME280;7275;50.328;8.720;2022-12-18T12:26:54;101099.91;;;5.23;35.17
14383;BME280;7275;50.328;8.720;2022-12-18T12:29:39;101103.31;;;5.10;35.41
14383;BME280;7275;50.328;8.720;2022-12-18T12:32:21;101096.22;;;4.96;35.22
14383;BME280;7275;50.328;8.720;2022-12-18T12:35:00;101102.22;;;4.82;35.83
14383;BME280;7275;50.328;8.720;2022-12-18T12:37:40;101104.78;;;4.75;35.57
14383;BME280;7275;50.328;8.720;2022-12-18T12:40:14;101102.09;;;4.70;36.23
14383;BME280;7275;50.328;8.720;2022-12-18T12:43:19;101097.72;;;4.68;36.33
14383;BME280;7275;50.328;8.720;2022-12-18T12:45:53;101084.56;;;4.62;35.54
14383;BME280;7275;50.328;8.720;2022-12-18T12:48:31;101083.63;;;4.52;36.49
14383;BME280;7275;50.328;8.720;2022-12-18T12:51:02;101078.25;;;4.39;36.31
14383;BME280;7275;50.328;8.720;2022-12-18T12:53:35;101095.50;;;4.20;36.50
14383;BME280;7275;50.328;8.720;2022-12-18T12:56:06;101077.88;;;4.02;36.10
14383;BME280;7275;50.328;8.720;2022-12-18T12:58:41;101082.06;;;3.88;36.71
14383;BME280;7275;50.328;8.720;2022-12-18T13:01:18;101084.53;;;3.75;36.80
14383;BME280;7275;50.328;8.720;2022-12-18T13:03:57;101085.22;;;3.62;36.46
14383;BME280;7275;50.328;8.720;2022-12-18T13:06:37;101092.00;;;3.48;36.71
14383;BME280;7275;50.328;8.720;2022-12-18T13:09:10;101097.09;;;3.39;37.29
14383;BME280;7275;50.328;8.720;2022-12-18T13:11:39;101103.13;;;3.32;37.14
14383;BME280;7275;50.328;8.720;2022-12-18T13:14:29;101097.69;;;3.19;37.32
14383;BME280;7275;50.328;8.720;2022-12-18T13:17:17;101091.47;;;3.11;37.29
14383;BME280;7275;50.328;8.720;2022-12-18T13:20:04;101091.41;;;3.07;37.35
14383;BME280;7275;50.328;8.720;2022-12-18T13:22:35;101097.44;;;3.03;37.63
14383;BME280;7275;50.328;8.720;2022-12-18T13:25:31;101083.41;;;2.96;37.60